Time;durP1;ratioP1;P1;durP2;ratioP2;P2;SDS_P1;SDS_P2;PMS_P1;PMS_P2;Temp;Humidity;BMP_temperature;BMP_pressure;BME280_temperature;BME280_humidity;BME280_pressure;Samples;Min_cycle;Max_cycle;Signal;HPM_P1;HPM_P2
2022/01/11 00:01:30;;;;;;;4.68;2.85;;;;;;;;;;4991912;28;20097;-76
2022/01/11 00:03:56;;;;;;;5.82;3.28;;;;;;;;;;4992037;28;20047;-81
2022/01/11 00:08:54;;;;;;;;;;;;;;;;;;4992221;28;20394;-81
2022/01/11 00:11:20;;;;;;;4.60;2.72;;;;;;;;;;4991861;28;19921;-80
2022/01/11 00:13:46;;;;;;;7.30;3.60;;;;;;;;;;4991582;28;20489;-81
2022/01/11 00:16:13;;;;;;;7.13;3.50;;;;;;;;;;4991459;28;20565;-80
2022/01/11 00:18:39;;;;;;;5.85;3.58;;;;;;;;;;4991112;28;20089;-80
2022/01/11 00:21:06;;;;;;;6.65;3.05;;;;;;;;;;4990085;28;20077;-81
2022/01/11 00:25:58;;;;;;;7.22;3.20;;;;;;;;;;4990540;28;20096;-81
2022/01/11 00:28:25;;;;;;;5.47;3.10;;;;;;;;;;4989813;28;20042;-81
2022/01/11 00:30:52;;;;;;;4.95;2.80;;;;;;;;;;4991461;28;20053;-81
2022/01/11 00:33:29;;;;;;;6.53;3.15;;;;;;;;;;4990288;28;20050;-80
2022/01/11 00:35:59;;;;;;;4.95;2.85;;;;;;;;;;4991526;28;20510;-82
2022/01/11 00:38:27;;;;;;;6.20;3.72;;;;;;;;;;4991441;28;20049;-80
2022/01/11 00:40:54;;;;;;;5.10;3.33;;;;;;;;;;4990171;28;20054;-80
2022/01/11 00:43:21;;;;;;;5.13;2.97;;;;;;;;;;4991966;28;20551;-80
2022/01/11 00:45:48;;;;;;;6.95;3.13;;;;;;;;;;4991250;28;20496;-80
2022/01/11 00:48:15;;;;;;;5.38;3.00;;;;;;;;;;4990567;28;20046;-79
2022/01/11 00:50:41;;;;;;;4.38;3.00;;;;;;;;;;4990258;28;20077;-80
2022/01/11 00:53:08;;;;;;;4.97;2.80;;;;;;;;;;4989424;28;20150;-81
2022/01/11 00:55:34;;;;;;;4.80;3.28;;;;;;;;;;4990111;28;20639;-81
2022/01/11 00:58:04;;;;;;;4.07;2.83;;;;;;;;;;4990001;28;20054;-81
2022/01/11 01:00:30;;;;;;;6.63;3.25;;;;;;;;;;4989970;28;20096;-79
2022/01/11 01:02:56;;;;;;;7.38;3.13;;;;;;;;;;4990845;28;20535;-79
2022/01/11 01:05:23;;;;;;;6.38;3.38;;;;;;;;;;4991181;28;20038;-80
2022/01/11 01:07:50;;;;;;;5.13;3.00;;;;;;;;;;4972785;28;20077;-80
2022/01/11 01:10:26;;;;;;;6.15;2.95;;;;;;;;;;4989354;28;20053;-80
2022/01/11 01:12:52;;;;;;;5.53;2.92;;;;;;;;;;4989377;28;20501;-79
2022/01/11 01:15:19;;;;;;;4.47;2.92;;;;;;;;;;4990676;28;20188;-80
2022/01/11 01:17:45;;;;;;;6.28;2.83;;;;;;;;;;4990322;28;20050;-80
2022/01/11 01:20:11;;;;;;;4.53;2.85;;;;;;;;;;4990384;28;20068;-80
2022/01/11 01:22:37;;;;;;;4.63;2.80;;;;;;;;;;4990551;28;20048;-79
2022/01/11 01:25:04;;;;;;;4.57;3.08;;;;;;;;;;4990746;28;20082;-79
2022/01/11 01:27:30;;;;;;;5.03;3.05;;;;;;;;;;4990617;28;20050;-80
2022/01/11 01:29:56;;;;;;;4.50;2.47;;;;;;;;;;4990056;28;20051;-80
2022/01/11 01:32:24;;;;;;;5.15;2.90;;;;;;;;;;4990499;28;20128;-80
2022/01/11 01:34:50;;;;;;;4.15;2.70;;;;;;;;;;4990209;28;20144;-80
2022/01/11 01:37:16;;;;;;;4.82;2.88;;;;;;;;;;4990199;28;20050;-80
2022/01/11 01:39:42;;;;;;;5.30;3.20;;;;;;;;;;4989911;28;20077;-80
2022/01/11 01:42:11;;;;;;;5.88;3.20;;;;;;;;;;4989293;28;20051;-80
2022/01/11 01:44:38;;;;;;;6.07;2.90;;;;;;;;;;4990829;28;20050;-80
2022/01/11 01:47:04;;;;;;;5.32;2.92;;;;;;;;;;4989701;28;20493;-81
2022/01/11 01:49:33;;;;;;;4.32;2.67;;;;;;;;;;4989793;28;20050;-81
2022/01/11 01:51:59;;;;;;;3.90;2.55;;;;;;;;;;4990162;28;20065;-81
2022/01/11 01:54:25;;;;;;;4.43;2.85;;;;;;;;;;4990377;28;20054;-80
2022/01/11 01:56:51;;;;;;;7.88;3.10;;;;;;;;;;4989103;28;20497;-76
2022/01/11 01:59:18;;;;;;;8.85;2.75;;;;;;;;;;4990285;28;20208;-82
2022/01/11 02:01:46;;;;;;;6.68;2.65;;;;;;;;;;4989948;28;20042;-79
2022/01/11 02:04:15;;;;;;;6.03;2.65;;;;;;;;;;4989382;28;20058;-80
2022/01/11 02:06:41;;;;;;;7.40;3.40;;;;;;;;;;4989842;28;20058;-81
2022/01/11 02:09:07;;;;;;;4.90;2.83;;;;;;;;;;4989884;28;20410;-81
2022/01/11 02:11:33;;;;;;;4.88;3.08;;;;;;;;;;4989451;28;20046;-81
2022/01/11 02:13:59;;;;;;;6.30;2.28;;;;;;;;;;4989700;28;20052;-81
2022/01/11 02:16:25;;;;;;;6.80;2.75;;;;;;;;;;4989662;28;20145;-82
2022/01/11 02:18:52;;;;;;;5.85;3.55;;;;;;;;;;4990357;28;20046;-81
2022/01/11 02:21:19;;;;;;;7.95;2.80;;;;;;;;;;4989283;28;20054;-76
2022/01/11 02:23:45;;;;;;;8.65;3.00;;;;;;;;;;4988806;28;20134;-78
2022/01/11 02:26:11;;;;;;;5.78;2.53;;;;;;;;;;4988684;28;20043;-78
2022/01/11 02:28:37;;;;;;;6.53;2.40;;;;;;;;;;4989305;28;20100;-78
2022/01/11 02:31:07;;;;;;;9.43;3.05;;;;;;;;;;4988610;28;20046;-78
2022/01/11 02:33:42;;;;;;;6.15;2.53;;;;;;;;;;4988827;28;20541;-80
2022/01/11 02:36:10;;;;;;;5.78;2.78;;;;;;;;;;4988037;28;20061;-80
2022/01/11 02:38:36;;;;;;;4.22;2.45;;;;;;;;;;4989332;28;20049;-81
2022/01/11 02:41:03;;;;;;;6.03;2.63;;;;;;;;;;4989124;28;20500;-79
2022/01/11 02:43:29;;;;;;;7.32;2.88;;;;;;;;;;4989056;28;20043;-79
2022/01/11 02:45:58;;;;;;;4.75;3.10;;;;;;;;;;4988648;28;20078;-80
2022/01/11 02:48:24;;;;;;;7.07;3.13;;;;;;;;;;4987637;28;20101;-80
2022/01/11 02:50:50;;;;;;;5.28;2.47;;;;;;;;;;4988161;28;20129;-80
2022/01/11 02:53:17;;;;;;;5.53;2.83;;;;;;;;;;4988843;28;20050;-80
2022/01/11 02:55:44;;;;;;;6.60;2.92;;;;;;;;;;4988451;28;20473;-79
2022/01/11 02:58:11;;;;;;;5.78;3.03;;;;;;;;;;4987588;28;20078;-78
2022/01/11 03:00:38;;;;;;;4.15;2.65;;;;;;;;;;4989142;28;20077;-78
2022/01/11 03:03:13;;;;;;;5.60;2.60;;;;;;;;;;4988709;28;20058;-78
2022/01/11 03:05:46;;;;;;;4.65;2.50;;;;;;;;;;4987920;28;20527;-78
2022/01/11 03:08:14;;;;;;;6.07;3.05;;;;;;;;;;4988997;28;20129;-78
2022/01/11 03:10:40;;;;;;;5.35;2.40;;;;;;;;;;4989618;28;20100;-78
2022/01/11 03:13:07;;;;;;;8.57;2.80;;;;;;;;;;4990841;28;20054;-78
2022/01/11 03:15:34;;;;;;;4.05;2.60;;;;;;;;;;4991420;28;20042;-78
2022/01/11 03:18:00;;;;;;;7.43;2.80;;;;;;;;;;4991001;28;20117;-78
2022/01/11 03:20:26;;;;;;;8.07;3.40;;;;;;;;;;4990669;28;20050;-78
2022/01/11 03:22:52;;;;;;;5.13;2.78;;;;;;;;;;4991494;28;20113;-78
2022/01/11 03:25:18;;;;;;;5.43;2.50;;;;;;;;;;4992554;28;20054;-78
2022/01/11 03:27:45;;;;;;;4.90;2.50;;;;;;;;;;4992677;28;20051;-78
2022/01/11 03:30:11;;;;;;;3.55;2.28;;;;;;;;;;4991475;28;20110;-78
2022/01/11 03:32:38;;;;;;;4.10;2.40;;;;;;;;;;4992160;28;20119;-80
2022/01/11 03:35:05;;;;;;;4.70;2.83;;;;;;;;;;4992453;28;20105;-81
2022/01/11 03:37:31;;;;;;;4.05;2.53;;;;;;;;;;4991218;28;20505;-80
2022/01/11 03:39:57;;;;;;;6.30;2.50;;;;;;;;;;4991179;28;20447;-80
2022/01/11 03:42:23;;;;;;;7.88;2.85;;;;;;;;;;4991490;28;20047;-79
2022/01/11 03:44:50;;;;;;;3.53;2.15;;;;;;;;;;4992480;28;20050;-79
2022/01/11 03:47:17;;;;;;;4.93;2.88;;;;;;;;;;4992008;28;20054;-79
2022/01/11 03:49:43;;;;;;;6.22;2.40;;;;;;;;;;4991157;28;20052;-78
2022/01/11 03:52:09;;;;;;;4.97;2.45;;;;;;;;;;4991285;28;20159;-78
2022/01/11 03:55:21;;;;;;;4.30;2.65;;;;;;;;;;4991574;28;20057;-78
2022/01/11 03:57:25;;;;;;;4.35;2.40;;;;;;;;;;4988295;28;20493;-78
2022/01/11 03:59:51;;;;;;;5.18;2.30;;;;;;;;;;4990152;28;20042;-78
2022/01/11 04:02:18;;;;;;;5.25;2.40;;;;;;;;;;4991332;28;20129;-78
2022/01/11 04:04:52;;;;;;;5.53;2.90;;;;;;;;;;4990752;28;20497;-78
2022/01/11 04:07:18;;;;;;;3.92;2.33;;;;;;;;;;4991280;28;20376;-78
2022/01/11 04:09:44;;;;;;;4.40;2.80;;;;;;;;;;4990124;28;20132;-78
2022/01/11 04:12:10;;;;;;;4.65;2.65;;;;;;;;;;4991307;28;20047;-78
2022/01/11 04:14:38;;;;;;;3.97;2.60;;;;;;;;;;4990836;28;20534;-78
2022/01/11 04:17:04;;;;;;;3.75;2.45;;;;;;;;;;4990846;28;20038;-78
2022/01/11 04:19:30;;;;;;;4.13;2.45;;;;;;;;;;4991172;28;20050;-78
2022/01/11 04:21:57;;;;;;;4.90;2.45;;;;;;;;;;4989759;28;20049;-78
2022/01/11 04:24:24;;;;;;;4.38;2.60;;;;;;;;;;4990726;28;20054;-78
2022/01/11 04:26:50;;;;;;;4.93;2.60;;;;;;;;;;4973877;28;20486;-78
2022/01/11 04:29:16;;;;;;;4.43;2.50;;;;;;;;;;4989965;28;20312;-78
2022/01/11 04:31:42;;;;;;;3.25;2.47;;;;;;;;;;4990650;28;20420;-78
2022/01/11 04:34:09;;;;;;;4.28;2.63;;;;;;;;;;4990628;28;20081;-78
2022/01/11 04:36:35;;;;;;;3.45;2.38;;;;;;;;;;4990905;28;20108;-77
2022/01/11 04:39:02;;;;;;;3.70;2.25;;;;;;;;;;4990342;28;20050;-78
2022/01/11 04:41:28;;;;;;;4.15;2.65;;;;;;;;;;4990204;28;20038;-78
2022/01/11 04:43:54;;;;;;;4.70;2.53;;;;;;;;;;4990810;28;20096;-78
2022/01/11 04:46:20;;;;;;;4.93;2.50;;;;;;;;;;4990326;28;20471;-79
2022/01/11 04:48:47;;;;;;;3.97;2.30;;;;;;;;;;4990662;28;20060;-79
2022/01/11 04:51:13;;;;;;;4.13;2.42;;;;;;;;;;4989161;28;20050;-79
2022/01/11 04:53:39;;;;;;;3.45;2.58;;;;;;;;;;4990528;28;20132;-78
2022/01/11 04:56:06;;;;;;;6.82;3.20;;;;;;;;;;4990801;28;20283;-75
2022/01/11 04:58:32;;;;;;;5.47;3.00;;;;;;;;;;4972869;28;20042;-75
2022/01/11 05:00:58;;;;;;;10.07;3.08;;;;;;;;;;4990935;28;20158;-80
2022/01/11 05:03:24;;;;;;;4.97;3.25;;;;;;;;;;4991074;28;20129;-81
2022/01/11 05:05:50;;;;;;;5.45;2.80;;;;;;;;;;4990196;28;20174;-82
2022/01/11 05:08:16;;;;;;;5.10;2.92;;;;;;;;;;4990313;28;20109;-80
2022/01/11 05:10:42;;;;;;;5.13;2.88;;;;;;;;;;4989631;28;20045;-80
2022/01/11 05:13:15;;;;;;;4.57;2.25;;;;;;;;;;4990523;28;20054;-80
2022/01/11 05:15:42;;;;;;;4.82;2.70;;;;;;;;;;4991350;28;20054;-80
2022/01/11 05:18:08;;;;;;;4.88;2.60;;;;;;;;;;4993019;28;20046;-80
2022/01/11 05:20:35;;;;;;;5.47;2.60;;;;;;;;;;4991885;28;20050;-80
2022/01/11 05:23:01;;;;;;;4.15;2.70;;;;;;;;;;4990839;28;20070;-80
2022/01/11 05:25:27;;;;;;;6.40;2.95;;;;;;;;;;4991017;28;20049;-80
2022/01/11 05:27:54;;;;;;;3.75;2.50;;;;;;;;;;4990481;28;20050;-81
2022/01/11 05:30:20;;;;;;;4.03;2.80;;;;;;;;;;4989873;28;20449;-80
2022/01/11 05:32:48;;;;;;;5.88;2.90;;;;;;;;;;4989118;28;20448;-80
2022/01/11 05:35:15;;;;;;;4.90;2.67;;;;;;;;;;4990088;28;20049;-80
2022/01/11 05:37:41;;;;;;;4.70;2.85;;;;;;;;;;4989520;28;20132;-80
2022/01/11 05:40:08;;;;;;;4.57;2.85;;;;;;;;;;4989722;28;20145;-79
2022/01/11 05:42:34;;;;;;;7.50;2.75;;;;;;;;;;4989394;28;20053;-80
2022/01/11 05:45:00;;;;;;;4.10;2.60;;;;;;;;;;4989775;28;20073;-79
2022/01/11 05:47:27;;;;;;;4.35;2.72;;;;;;;;;;4990126;28;20112;-78
2022/01/11 05:49:53;;;;;;;3.67;2.30;;;;;;;;;;4990176;28;20119;-80
2022/01/11 05:52:19;;;;;;;4.70;2.42;;;;;;;;;;4989780;28;20125;-81
2022/01/11 05:54:45;;;;;;;5.50;2.80;;;;;;;;;;4988828;28;20046;-79
2022/01/11 05:57:11;;;;;;;7.18;3.20;;;;;;;;;;4988287;28;20133;-80
2022/01/11 05:59:37;;;;;;;4.40;2.88;;;;;;;;;;4989494;28;20045;-79
2022/01/11 06:02:04;;;;;;;4.95;2.83;;;;;;;;;;4989805;28;20480;-78
2022/01/11 06:04:30;;;;;;;3.67;2.42;;;;;;;;;;4989322;28;20145;-80
2022/01/11 06:06:56;;;;;;;5.05;2.88;;;;;;;;;;4988453;28;20039;-80
2022/01/11 06:09:26;;;;;;;4.30;2.40;;;;;;;;;;4989423;28;20559;-81
2022/01/11 06:11:53;;;;;;;13.50;2.80;;;;;;;;;;4989322;28;20104;-81
2022/01/11 06:14:19;;;;;;;6.18;2.80;;;;;;;;;;4989906;28;20046;-82
2022/01/11 06:16:45;;;;;;;4.22;2.85;;;;;;;;;;4989441;28;20050;-81
2022/01/11 06:19:11;;;;;;;3.58;2.60;;;;;;;;;;4989165;28;20359;-82
2022/01/11 06:21:37;;;;;;;4.15;2.78;;;;;;;;;;4989684;28;20420;-81
2022/01/11 06:24:03;;;;;;;5.35;2.50;;;;;;;;;;4989517;28;20077;-82
2022/01/11 06:26:34;;;;;;;3.45;2.28;;;;;;;;;;4988288;28;20050;-81
2022/01/11 06:29:02;;;;;;;5.25;2.88;;;;;;;;;;4989013;28;20046;-81
2022/01/11 06:31:30;;;;;;;4.78;2.50;;;;;;;;;;4989167;28;20046;-81
2022/01/11 06:33:56;;;;;;;4.35;2.60;;;;;;;;;;4989280;28;20042;-81
2022/01/11 06:36:22;;;;;;;4.40;2.97;;;;;;;;;;4988876;28;20039;-82
2022/01/11 06:38:48;;;;;;;4.80;2.40;;;;;;;;;;4988927;28;20050;-81
2022/01/11 06:41:14;;;;;;;4.95;3.15;;;;;;;;;;4989312;28;20480;-83
2022/01/11 06:43:41;;;;;;;5.05;3.15;;;;;;;;;;4989574;28;20042;-82
2022/01/11 06:46:07;;;;;;;4.75;2.85;;;;;;;;;;4990555;28;20058;-81
2022/01/11 06:48:33;;;;;;;3.72;2.30;;;;;;;;;;4992146;28;20080;-81
2022/01/11 06:50:59;;;;;;;4.30;2.53;;;;;;;;;;4991352;28;20104;-81
2022/01/11 06:53:25;;;;;;;4.45;2.80;;;;;;;;;;4992906;28;20046;-83
2022/01/11 06:55:54;;;;;;;3.72;2.55;;;;;;;;;;4992426;28;20472;-83
2022/01/11 06:58:21;;;;;;;4.30;2.90;;;;;;;;;;4992026;28;20043;-82
2022/01/11 07:00:47;;;;;;;4.03;2.95;;;;;;;;;;4993367;28;20050;-83
2022/01/11 07:03:15;;;;;;;4.18;2.55;;;;;;;;;;4992473;28;20042;-81
2022/01/11 07:05:41;;;;;;;3.63;2.22;;;;;;;;;;4977210;28;20074;-82
2022/01/11 07:08:07;;;;;;;4.85;2.90;;;;;;;;;;4974216;28;20047;-83
2022/01/11 07:10:33;;;;;;;5.28;2.75;;;;;;;;;;4973816;28;20051;-82
2022/01/11 07:13:02;;;;;;;4.53;2.72;;;;;;;;;;4973346;28;20047;-81
2022/01/11 07:15:29;;;;;;;4.32;2.67;;;;;;;;;;4973060;28;20051;-81
2022/01/11 07:17:55;;;;;;;4.60;2.95;;;;;;;;;;4973607;28;20173;-81
2022/01/11 07:20:22;;;;;;;4.15;2.80;;;;;;;;;;4973782;28;20039;-81
2022/01/11 07:22:48;;;;;;;5.53;3.35;;;;;;;;;;4972280;28;20513;-80
2022/01/11 07:25:15;;;;;;;4.45;2.70;;;;;;;;;;4971976;28;20035;-80
2022/01/11 07:27:41;;;;;;;4.78;2.83;;;;;;;;;;4973796;28;20536;-81
2022/01/11 07:30:08;;;;;;;4.18;2.92;;;;;;;;;;4973561;28;20505;-82
2022/01/11 07:32:35;;;;;;;4.18;2.70;;;;;;;;;;4973362;28;20051;-75
2022/01/11 07:35:01;;;;;;;7.57;3.10;;;;;;;;;;4971957;28;20536;-80
2022/01/11 07:37:28;;;;;;;5.97;3.30;;;;;;;;;;4972580;28;20097;-81
2022/01/11 07:39:54;;;;;;;5.80;3.22;;;;;;;;;;4972567;28;20130;-80
2022/01/11 07:42:20;;;;;;;6.90;2.92;;;;;;;;;;4973352;28;20077;-80
2022/01/11 07:44:50;;;;;;;5.55;3.10;;;;;;;;;;4974218;28;20497;-80
2022/01/11 07:47:17;;;;;;;5.35;2.78;;;;;;;;;;4973327;28;20608;-80
2022/01/11 07:49:43;;;;;;;6.50;2.90;;;;;;;;;;4973370;28;20509;-80
2022/01/11 07:52:09;;;;;;;6.75;3.35;;;;;;;;;;4973424;28;20051;-80
2022/01/11 07:54:35;;;;;;;5.20;3.08;;;;;;;;;;4973387;28;20047;-80
2022/01/11 07:57:01;;;;;;;6.82;3.17;;;;;;;;;;4956055;28;20046;-81
2022/01/11 07:59:27;;;;;;;5.68;3.30;;;;;;;;;;4973214;28;20047;-80
2022/01/11 08:01:53;;;;;;;5.90;3.35;;;;;;;;;;4972744;28;20078;-81
2022/01/11 08:04:19;;;;;;;4.95;2.97;;;;;;;;;;4971623;28;20046;-78
2022/01/11 08:06:46;;;;;;;7.70;3.30;;;;;;;;;;4971264;28;20488;-79
2022/01/11 08:09:14;;;;;;;5.00;2.80;;;;;;;;;;4972589;28;20457;-80
2022/01/11 08:11:40;;;;;;;7.70;3.07;;;;;;;;;;4972339;28;20051;-80
2022/01/11 08:14:06;;;;;;;8.65;2.90;;;;;;;;;;4971993;28;20138;-81
2022/01/11 08:16:32;;;;;;;5.10;3.20;;;;;;;;;;4955023;28;20078;-79
2022/01/11 08:18:58;;;;;;;5.22;3.30;;;;;;;;;;4972314;28;20057;-80
2022/01/11 08:21:24;;;;;;;6.80;3.75;;;;;;;;;;4972199;28;20137;-80
2022/01/11 08:23:51;;;;;;;5.32;3.00;;;;;;;;;;4972402;28;20047;-79
2022/01/11 08:26:17;;;;;;;6.32;3.10;;;;;;;;;;4971778;28;20043;-78
2022/01/11 08:28:44;;;;;;;4.75;3.35;;;;;;;;;;4970783;28;20057;-77
2022/01/11 08:31:10;;;;;;;5.07;3.55;;;;;;;;;;4972128;28;20090;-77
2022/01/11 08:33:36;;;;;;;7.40;3.00;;;;;;;;;;4972034;28;20051;-78
2022/01/11 08:36:02;;;;;;;5.00;3.17;;;;;;;;;;4971827;28;20053;-79
2022/01/11 08:38:28;;;;;;;5.10;2.97;;;;;;;;;;4972080;28;20046;-77
2022/01/11 08:40:54;;;;;;;5.10;2.90;;;;;;;;;;4971709;28;20058;-81
2022/01/11 08:43:20;;;;;;;5.75;3.47;;;;;;;;;;4971758;28;20421;-80
2022/01/11 08:45:46;;;;;;;8.15;3.53;;;;;;;;;;4972022;28;20054;-79
2022/01/11 08:48:13;;;;;;;4.30;3.13;;;;;;;;;;4971274;28;20059;-78
2022/01/11 08:50:39;;;;;;;4.53;3.15;;;;;;;;;;4954564;28;20054;-80
2022/01/11 08:53:07;;;;;;;5.60;3.28;;;;;;;;;;4970597;28;20046;-81
2022/01/11 08:55:34;;;;;;;5.20;3.10;;;;;;;;;;4971454;28;20082;-80
2022/01/11 08:58:01;;;;;;;11.38;3.50;;;;;;;;;;4971723;28;20141;-75
2022/01/11 09:00:28;;;;;;;6.50;3.70;;;;;;;;;;4971819;28;20043;-75
2022/01/11 09:02:54;;;;;;;8.27;3.42;;;;;;;;;;4970915;28;20051;-76
2022/01/11 09:05:21;;;;;;;9.23;3.47;;;;;;;;;;4970517;28;20515;-77
2022/01/11 09:07:47;;;;;;;6.47;3.72;;;;;;;;;;4970040;28;20058;-75
2022/01/11 09:10:13;;;;;;;5.72;3.90;;;;;;;;;;4970936;28;20398;-75
2022/01/11 09:12:39;;;;;;;6.18;3.90;;;;;;;;;;4971509;28;20042;-75
2022/01/11 09:15:06;;;;;;;6.47;4.20;;;;;;;;;;4970900;28;20050;-75
2022/01/11 09:17:32;;;;;;;6.70;4.10;;;;;;;;;;4969654;28;20173;-76
2022/01/11 09:19:59;;;;;;;10.35;4.20;;;;;;;;;;4969603;28;20047;-76
2022/01/11 09:22:25;;;;;;;6.15;4.30;;;;;;;;;;4954030;28;20059;-76
2022/01/11 09:24:51;;;;;;;6.30;4.22;;;;;;;;;;4969446;28;20049;-77
2022/01/11 09:27:17;;;;;;;7.55;4.45;;;;;;;;;;4969131;28;20105;-73
2022/01/11 09:29:43;;;;;;;7.95;4.43;;;;;;;;;;4971413;28;20457;-74
2022/01/11 09:32:10;;;;;;;6.88;4.22;;;;;;;;;;4971102;28;20489;-74
2022/01/11 09:34:38;;;;;;;6.38;3.90;;;;;;;;;;4970672;28;20054;-75
2022/01/11 09:37:05;;;;;;;7.10;4.47;;;;;;;;;;4969507;28;20046;-77
2022/01/11 09:39:31;;;;;;;7.10;4.68;;;;;;;;;;4970745;28;20047;-81
2022/01/11 09:41:59;;;;;;;6.63;4.10;;;;;;;;;;4969436;28;20047;-74
2022/01/11 09:44:25;;;;;;;7.03;4.55;;;;;;;;;;4970869;28;20057;-76
2022/01/11 09:46:52;;;;;;;7.13;4.53;;;;;;;;;;4970673;28;20053;-74
2022/01/11 09:49:18;;;;;;;6.50;4.35;;;;;;;;;;4969233;28;20061;-75
2022/01/11 09:51:44;;;;;;;7.32;4.85;;;;;;;;;;4971210;28;20105;-74
2022/01/11 09:54:12;;;;;;;6.57;4.30;;;;;;;;;;4970340;28;20554;-75
2022/01/11 09:56:39;;;;;;;7.03;4.82;;;;;;;;;;4966395;28;20042;-74
2022/01/11 09:59:07;;;;;;;7.07;4.30;;;;;;;;;;4988436;28;20053;-75
2022/01/11 10:01:36;;;;;;;7.25;4.55;;;;;;;;;;4990648;28;20492;-75
2022/01/11 10:04:10;;;;;;;7.88;4.95;;;;;;;;;;4974693;28;20078;-76
2022/01/11 10:06:39;;;;;;;6.90;4.90;;;;;;;;;;4971269;28;20070;-74
2022/01/11 10:09:09;;;;;;;7.97;4.93;;;;;;;;;;4954030;28;20062;-75
2022/01/11 10:11:38;;;;;;;7.55;5.18;;;;;;;;;;4971720;28;20077;-75
2022/01/11 10:14:21;;;;;;;6.78;4.78;;;;;;;;;;4972364;28;20509;-75
2022/01/11 10:16:48;;;;;;;6.88;4.70;;;;;;;;;;4971665;28;20058;-74
2022/01/11 10:19:23;;;;;;;7.22;5.18;;;;;;;;;;4975015;28;20049;-76
2022/01/11 10:21:50;;;;;;;7.47;4.70;;;;;;;;;;4993421;28;20046;-76
2022/01/11 10:24:21;;;;;;;7.75;4.85;;;;;;;;;;4986598;28;20517;-76
2022/01/11 10:26:47;;;;;;;6.72;4.63;;;;;;;;;;4954350;28;20051;-75
2022/01/11 10:29:32;;;;;;;6.88;4.90;;;;;;;;;;4982852;28;20050;-76
2022/01/11 10:31:59;;;;;;;7.50;4.93;;;;;;;;;;4992843;28;20595;-76
2022/01/11 10:34:26;;;;;;;7.85;4.53;;;;;;;;;;4992695;28;20078;-75
2022/01/11 10:36:52;;;;;;;6.63;4.40;;;;;;;;;;4992029;28;20058;-75
2022/01/11 10:39:45;;;;;;;8.02;4.75;;;;;;;;;;4977748;28;20062;-80
2022/01/11 10:42:46;;;;;;;7.10;4.47;;;;;;;;;;4980446;28;20401;-80
2022/01/11 10:45:21;;;;;;;5.90;3.87;;;;;;;;;;4969621;28;20069;-78
2022/01/11 10:47:49;;;;;;;6.85;4.80;;;;;;;;;;4971571;28;20117;-77
2022/01/11 10:50:18;;;;;;;7.05;4.75;;;;;;;;;;4972219;28;21227;-77
2022/01/11 10:52:44;;;;;;;7.88;4.95;;;;;;;;;;4973018;28;20046;-77
2022/01/11 10:55:15;;;;;;;7.60;5.05;;;;;;;;;;4971548;28;20167;-76
2022/01/11 10:57:43;;;;;;;6.53;4.13;;;;;;;;;;4972551;28;20035;-75
2022/01/11 11:00:09;;;;;;;6.60;4.68;;;;;;;;;;4972584;28;20066;-79
2022/01/11 11:02:36;;;;;;;6.88;5.00;;;;;;;;;;4969940;28;20053;-76
2022/01/11 11:05:14;;;;;;;7.57;4.50;;;;;;;;;;4971608;28;20047;-76
2022/01/11 11:07:40;;;;;;;7.72;4.88;;;;;;;;;;4970236;28;20053;-74
2022/01/11 11:10:06;;;;;;;6.13;4.53;;;;;;;;;;4971252;28;20122;-77
2022/01/11 11:12:33;;;;;;;6.93;4.80;;;;;;;;;;4970077;28;20605;-76
2022/01/11 11:14:59;;;;;;;6.40;4.53;;;;;;;;;;4971077;28;20043;-76
2022/01/11 11:17:33;;;;;;;7.13;4.68;;;;;;;;;;4972083;28;20073;-76
2022/01/11 11:20:00;;;;;;;6.70;4.63;;;;;;;;;;4968589;28;20043;-76
2022/01/11 11:22:30;;;;;;;7.05;4.40;;;;;;;;;;4971982;28;20054;-77
2022/01/11 11:24:56;;;;;;;;;;;;;;;;;;4971004;28;20054;-75
2022/01/11 11:27:23;;;;;;;6.13;4.35;;;;;;;;;;4971973;28;19983;-75
2022/01/11 11:29:50;;;;;;;6.80;4.57;;;;;;;;;;4971213;28;20074;-75
2022/01/11 11:32:20;;;;;;;7.40;4.85;;;;;;;;;;4970971;28;20125;-76
2022/01/11 11:34:51;;;;;;;6.57;4.60;;;;;;;;;;4972762;28;20046;-77
2022/01/11 11:37:46;;;;;;;7.28;4.63;;;;;;;;;;4973759;28;20055;-81
2022/01/11 11:40:23;;;;;;;7.22;4.45;;;;;;;;;;4970204;28;20074;-81
2022/01/11 11:42:53;;;;;;;7.05;4.55;;;;;;;;;;4975875;28;20050;-77
2022/01/11 11:45:24;;;;;;;6.97;4.65;;;;;;;;;;4970991;28;20090;-76
2022/01/11 11:47:50;;;;;;;6.45;4.60;;;;;;;;;;4971561;28;20066;-76
2022/01/11 11:50:19;;;;;;;6.40;4.45;;;;;;;;;;4971775;28;20051;-79
2022/01/11 11:52:46;;;;;;;6.82;4.47;;;;;;;;;;4970729;28;20047;-79
2022/01/11 11:55:23;;;;;;;5.78;4.20;;;;;;;;;;4970447;28;20054;-81
2022/01/11 11:57:54;;;;;;;5.97;4.47;;;;;;;;;;4969788;28;20043;-77
2022/01/11 12:00:22;;;;;;;6.20;4.20;;;;;;;;;;4970388;28;20046;-77
2022/01/11 12:02:52;;;;;;;6.85;4.40;;;;;;;;;;4968194;28;20106;-79
2022/01/11 12:05:37;;;;;;;6.97;4.45;;;;;;;;;;4969623;28;20630;-80
2022/01/11 12:08:22;;;;;;;5.95;4.07;;;;;;;;;;4969728;28;20047;-78
2022/01/11 12:10:49;;;;;;;5.88;4.38;;;;;;;;;;4970946;28;20473;-78
2022/01/11 12:13:34;;;;;;;10.32;4.55;;;;;;;;;;4968672;28;20055;-80
2022/01/11 12:16:00;;;;;;;10.57;4.22;;;;;;;;;;4969711;28;20039;-81
2022/01/11 12:18:42;;;;;;;7.88;4.13;;;;;;;;;;4953702;28;20238;-79
2022/01/11 12:21:10;;;;;;;8.57;4.88;;;;;;;;;;4970921;28;20054;-81
2022/01/11 12:23:36;;;;;;;10.10;4.63;;;;;;;;;;4952903;28;20062;-81
2022/01/11 12:26:16;;;;;;;6.47;4.53;;;;;;;;;;4970866;28;20171;-81
2022/01/11 12:28:47;;;;;;;6.00;4.32;;;;;;;;;;4968741;28;20428;-82
2022/01/11 12:31:29;;;;;;;7.88;3.78;;;;;;;;;;4969657;28;20504;-81
2022/01/11 12:33:55;;;;;;;8.23;3.97;;;;;;;;;;4969078;28;20105;-81
2022/01/11 12:36:22;;;;;;;10.95;4.32;;;;;;;;;;4969983;28;20047;-81
2022/01/11 12:39:01;;;;;;;7.60;4.05;;;;;;;;;;4958353;28;20077;-80
2022/01/11 12:41:37;;;;;;;5.90;4.00;;;;;;;;;;4969771;28;20046;-81
2022/01/11 12:44:32;;;;;;;8.25;4.43;;;;;;;;;;4968385;28;20047;-80
2022/01/11 12:47:03;;;;;;;7.80;4.20;;;;;;;;;;4969763;28;20480;-81
2022/01/11 12:49:30;;;;;;;7.95;4.00;;;;;;;;;;4970068;28;20085;-81
2022/01/11 12:52:08;;;;;;;5.90;4.05;;;;;;;;;;4968936;28;20397;-81
2022/01/11 12:54:34;;;;;;;6.47;3.97;;;;;;;;;;4967920;28;20417;-80
2022/01/11 12:57:12;;;;;;;6.07;3.80;;;;;;;;;;4968753;28;20082;-80
2022/01/11 12:59:39;;;;;;;7.80;3.63;;;;;;;;;;4969256;28;20416;-80
2022/01/11 13:02:11;;;;;;;5.70;4.07;;;;;;;;;;4969352;28;20122;-81
2022/01/11 13:04:41;;;;;;;5.80;3.95;;;;;;;;;;4968184;28;20497;-81
2022/01/11 13:07:26;;;;;;;5.50;3.78;;;;;;;;;;4968786;28;20039;-81
2022/01/11 13:10:11;;;;;;;5.65;3.60;;;;;;;;;;4967841;28;20082;-82
2022/01/11 13:12:50;;;;;;;6.07;4.07;;;;;;;;;;4970174;28;20043;-82
2022/01/11 13:15:20;;;;;;;5.75;3.95;;;;;;;;;;4966563;28;20042;-80
2022/01/11 13:17:58;;;;;;;5.70;3.88;;;;;;;;;;4967696;28;20051;-81
2022/01/11 13:20:25;;;;;;;12.98;4.15;;;;;;;;;;4969238;28;20051;-72
2022/01/11 13:23:11;;;;;;;20.08;4.68;;;;;;;;;;4969218;28;20764;-75
2022/01/11 13:25:39;;;;;;;9.52;4.10;;;;;;;;;;4968924;28;20050;-74
2022/01/11 13:28:05;;;;;;;6.72;3.97;;;;;;;;;;4967991;28;20444;-75
2022/01/11 13:30:38;;;;;;;6.35;4.45;;;;;;;;;;4968915;28;20043;-75
2022/01/11 13:33:04;;;;;;;10.00;4.43;;;;;;;;;;4968274;28;20214;-75
2022/01/11 13:35:30;;;;;;;6.53;3.97;;;;;;;;;;4967336;28;20051;-75
2022/01/11 13:37:56;;;;;;;5.93;3.95;;;;;;;;;;4968430;28;20057;-75
2022/01/11 13:40:26;;;;;;;6.43;3.92;;;;;;;;;;4967698;28;20078;-74
2022/01/11 13:43:08;;;;;;;5.63;3.88;;;;;;;;;;4957224;28;20035;-74
2022/01/11 13:45:35;;;;;;;6.55;4.05;;;;;;;;;;4968659;28;20098;-75
2022/01/11 13:48:11;;;;;;;6.25;3.70;;;;;;;;;;4968624;28;20109;-75
2022/01/11 13:50:54;;;;;;;6.07;3.60;;;;;;;;;;4966995;28;20131;-75
2022/01/11 13:53:23;;;;;;;6.18;3.85;;;;;;;;;;4966296;28;20047;-74
2022/01/11 13:55:50;;;;;;;6.75;4.03;;;;;;;;;;4967364;28;20042;-74
2022/01/11 13:58:19;;;;;;;5.68;3.80;;;;;;;;;;4967774;28;20920;-75
2022/01/11 14:00:45;;;;;;;8.93;4.22;;;;;;;;;;4966896;28;20437;-75
2022/01/11 14:03:12;;;;;;;12.43;4.50;;;;;;;;;;4966936;28;20049;-80
2022/01/11 14:05:38;;;;;;;12.40;4.18;;;;;;;;;;4968599;28;20043;-76
2022/01/11 14:08:08;;;;;;;6.85;4.07;;;;;;;;;;4967855;28;20042;-76
2022/01/11 14:10:37;;;;;;;7.10;3.55;;;;;;;;;;4966430;28;20043;-74
2022/01/11 14:13:06;;;;;;;10.00;3.47;;;;;;;;;;4966629;28;20054;-73
2022/01/11 14:15:32;;;;;;;8.80;4.40;;;;;;;;;;4967730;28;20639;-73
2022/01/11 14:17:59;;;;;;;8.80;3.92;;;;;;;;;;4967878;28;20047;-74
2022/01/11 14:20:32;;;;;;;4.82;3.65;;;;;;;;;;4968059;28;20119;-74
2022/01/11 14:23:17;;;;;;;8.68;4.07;;;;;;;;;;4967225;28;20054;-75
2022/01/11 14:25:55;;;;;;;9.32;4.10;;;;;;;;;;4956127;28;20129;-75
2022/01/11 14:28:29;;;;;;;5.28;3.28;;;;;;;;;;4967453;28;20047;-76
2022/01/11 14:31:00;;;;;;;6.78;3.90;;;;;;;;;;4968016;28;20043;-76
2022/01/11 14:33:26;;;;;;;6.13;4.03;;;;;;;;;;4958059;28;20108;-75
2022/01/11 14:35:55;;;;;;;4.88;3.25;;;;;;;;;;4967387;28;20069;-76
2022/01/11 14:38:21;;;;;;;7.13;3.70;;;;;;;;;;4967849;28;20331;-76
2022/01/11 14:40:47;;;;;;;5.80;3.88;;;;;;;;;;4967731;28;20465;-75
2022/01/11 14:43:15;;;;;;;8.45;3.95;;;;;;;;;;4967779;28;20420;-76
2022/01/11 14:45:47;;;;;;;8.10;4.18;;;;;;;;;;4968282;28;20386;-76
2022/01/11 14:48:13;;;;;;;5.78;3.67;;;;;;;;;;4967263;28;20101;-77
2022/01/11 14:50:39;;;;;;;5.53;3.25;;;;;;;;;;4965787;28;20050;-75
2022/01/11 14:53:07;;;;;;;5.75;3.78;;;;;;;;;;4967281;28;20066;-78
2022/01/11 14:55:39;;;;;;;8.32;4.15;;;;;;;;;;4964894;28;20038;-79